Time;durP1;ratioP1;P1;durP2;ratioP2;P2;SDS_P1;SDS_P2;PMS_P1;PMS_P2;Temp;Humidity;BMP_temperature;BMP_pressure;BME280_temperature;BME280_humidity;BME280_pressure;Samples;Min_cycle;Max_cycle;Signal;HPM_P1;HPM_P2
2023/05/30 00:00:01;;;;;;;;;7.00;6.00;;;;;17.39;46.98;101647.47;4974937;28;45361;-74
2023/05/30 00:02:26;;;;;;;;;5.33;4.00;;;;;17.27;46.48;101637.06;4965969;28;45839;-74
2023/05/30 00:04:52;;;;;;;;;8.33;4.00;;;;;17.36;46.56;101667.47;4976175;28;45670;-75
2023/05/30 00:07:18;;;;;;;;;6.33;4.00;;;;;17.42;46.22;101657.88;4967327;28;46387;-75
2023/05/30 00:09:44;;;;;;;;;5.33;5.33;;;;;17.41;46.04;101664.28;4942303;28;45267;-74
2023/05/30 00:12:11;;;;;;;;;4.33;3.33;;;;;17.34;46.13;101658.72;4953728;28;45287;-77
2023/05/30 00:14:37;;;;;;;;;3.00;3.00;;;;;17.37;45.98;101660.25;4959206;28;45384;-75
2023/05/30 00:17:05;;;;;;;;;4.00;3.33;;;;;17.26;46.01;101650.66;4967524;28;46281;-76
2023/05/30 00:19:31;;;;;;;;;2.33;1.33;;;;;17.24;46.02;101669.66;4977713;28;45480;-75
2023/05/30 00:21:57;;;;;;;;;4.67;4.00;;;;;17.12;45.92;101648.63;4972792;28;45465;-75
2023/05/30 00:24:25;;;;;;;;;4.33;3.33;;;;;17.17;46.11;101662.38;4971522;28;45319;-76
2023/05/30 00:26:51;;;;;;;;;4.00;3.00;;;;;17.23;45.78;101657.22;4961308;28;47562;-76
2023/05/30 00:29:16;;;;;;;;;4.00;3.00;;;;;17.18;45.84;101664.91;4978818;28;45320;-75
2023/05/30 00:31:41;;;;;;;;;5.00;5.00;;;;;16.91;45.88;101646.38;4981991;28;45746;-75
2023/05/30 00:34:07;;;;;;;;;6.33;4.67;;;;;16.10;46.14;101521.56;4978664;28;45453;-74
2023/05/30 00:36:32;;;;;;;;;5.00;3.33;;;;;16.98;46.35;101669.72;4977932;28;45699;-75
2023/05/30 00:38:58;;;;;;;;;5.67;4.67;;;;;16.94;46.25;101671.06;4977087;28;45390;-74
2023/05/30 00:41:23;;;;;;;;;7.67;4.33;;;;;16.96;46.16;101670.91;4963920;28;45287;-78
2023/05/30 00:43:48;;;;;;;;;3.00;3.00;;;;;16.97;45.76;101669.91;4977767;28;45374;-73
2023/05/30 00:46:15;;;;;;;;;3.67;3.00;;;;;16.91;46.14;101667.88;4977081;28;51529;-76
2023/05/30 00:48:40;;;;;;;;;3.00;3.00;;;;;16.68;45.90;101636.22;4967399;28;45350;-75
2023/05/30 00:51:10;;;;;;;;;5.00;3.33;;;;;16.82;45.83;101660.75;4978144;28;45640;-75
2023/05/30 00:53:37;;;;;;;;;4.33;4.33;;;;;16.80;46.18;101649.34;4983960;28;45664;-74
2023/05/30 00:56:02;;;;;;;;;8.00;3.00;;;;;16.85;46.29;101657.78;4983095;28;46748;-76
2023/05/30 00:58:28;;;;;;;;;5.00;5.00;;;;;16.66;46.37;101622.13;4976652;28;45524;-76
2023/05/30 01:00:54;;;;;;;;;4.00;4.00;;;;;16.48;46.25;101591.00;4973615;28;45286;-76
2023/05/30 01:03:24;;;;;;;;;6.33;4.33;;;;;16.83;46.48;101662.47;4977472;28;45407;-75
2023/05/30 01:05:50;;;;;;;;;6.67;5.67;;;;;16.76;46.61;101674.84;4982573;28;46210;-75
2023/05/30 01:08:16;;;;;;;;;4.00;4.00;;;;;16.71;46.91;101661.91;4982858;28;45543;-75
2023/05/30 01:10:41;;;;;;;;;7.00;5.00;;;;;16.77;46.85;101669.31;4971919;28;45396;-74
2023/05/30 01:13:36;;;;;;;;;6.33;5.00;;;;;16.67;47.31;101666.78;4973071;28;45303;-74
2023/05/30 01:16:08;;;;;;;;;6.33;5.67;;;;;16.51;47.49;101650.56;4949049;28;45743;-76
2023/05/30 01:18:58;;;;;;;;;5.50;5.50;;;;;16.59;47.63;101671.22;4977036;28;45412;-75
2023/05/30 01:21:26;;;;;;;;;7.00;4.33;;;;;15.78;48.15;101554.41;4977120;28;45511;-75
2023/05/30 01:24:19;;;;;;;;;6.33;5.33;;;;;16.47;48.17;101661.78;4959271;28;46294;-75
2023/05/30 01:27:04;;;;;;;;;8.33;5.00;;;;;16.44;48.07;101671.00;4967920;28;45631;-75
2023/05/30 01:29:30;;;;;;;;;5.67;4.67;;;;;16.41;48.36;101653.34;4964542;28;45539;-75
2023/05/30 01:31:58;;;;;;;;;5.00;4.00;;;;;16.40;48.55;101672.28;4971837;28;45488;-74
2023/05/30 01:34:23;;;;;;;;;6.67;5.00;;;;;16.16;48.46;101637.28;4963406;28;45563;-75
2023/05/30 01:36:49;;;;;;;;;5.67;5.67;;;;;16.15;48.88;101654.38;4988554;28;46385;-76
2023/05/30 01:39:15;;;;;;;;;10.33;5.00;;;;;16.28;48.56;101670.91;4982792;28;45698;-76
2023/05/30 01:41:53;;;;;;;;;7.33;6.00;;;;;16.39;48.73;101684.03;4997247;28;45356;-76
2023/05/30 01:44:51;;;;;;;;;5.33;3.33;;;;;16.31;48.79;101673.25;4983222;28;45438;-75
2023/05/30 01:47:42;;;;;;;;;4.67;3.67;;;;;16.07;48.92;101653.34;4973095;28;46186;-76
2023/05/30 01:50:17;;;;;;;;;6.00;6.00;;;;;16.15;49.24;101675.84;4981569;28;45428;-76
2023/05/30 01:52:50;;;;;;;;;8.00;6.00;;;;;15.96;49.42;101645.53;4980488;28;45219;-75
2023/05/30 01:55:17;;;;;;;;;4.33;3.00;;;;;16.04;49.76;101677.78;4980780;28;45513;-75
2023/05/30 01:57:47;;;;;;;;;6.00;5.00;;;;;16.08;49.57;101684.53;4979002;28;49106;-77
2023/05/30 02:00:16;;;;;;;;;4.00;4.00;;;;;16.05;49.45;101676.78;4979993;28;45468;-76
2023/05/30 02:02:43;;;;;;;;;5.33;5.00;;;;;16.16;49.44;101677.50;4980275;28;45268;-77
2023/05/30 02:05:09;;;;;;;;;6.00;4.67;;;;;16.08;49.44;101659.53;4967282;28;45275;-76
2023/05/30 02:07:34;;;;;;;;;2.00;2.00;;;;;16.10;48.75;101669.09;4983622;28;48573;-75
2023/05/30 02:09:59;;;;;;;;;6.33;5.67;;;;;16.24;49.38;101683.78;4981054;28;45437;-75
2023/05/30 02:12:25;;;;;;;;;6.00;5.67;;;;;16.17;49.24;101679.19;4981010;28;47697;-75
2023/05/30 02:14:52;;;;;;;;;5.33;5.33;;;;;16.18;49.51;101683.56;4951216;28;45366;-74
2023/05/30 02:17:21;;;;;;;;;4.67;3.00;;;;;16.02;49.46;101677.09;4968259;28;46296;-75
2023/05/30 02:19:49;;;;;;;;;8.00;6.67;;;;;15.82;50.17;101664.88;4962339;28;46106;-73
2023/05/30 02:22:16;;;;;;;;;7.67;6.67;;;;;15.82;50.32;101680.97;4978700;28;45495;-75
2023/05/30 02:24:41;;;;;;;;;7.67;6.00;;;;;15.74;50.27;101678.22;4956502;28;45538;-75
2023/05/30 02:27:07;;;;;;;;;5.67;3.00;;;;;15.71;50.62;101683.88;4985604;28;46260;-75
2023/05/30 02:29:33;;;;;;;;;4.33;4.33;;;;;15.29;50.77;101606.78;4998092;28;46216;-74
2023/05/30 02:31:58;;;;;;;;;7.00;5.00;;;;;15.75;50.48;101677.22;4999423;28;45515;-75
2023/05/30 02:34:24;;;;;;;;;6.33;4.67;;;;;15.61;50.64;101662.50;4999344;28;45445;-76
2023/05/30 02:36:49;;;;;;;;;10.00;6.33;;;;;15.68;50.60;101677.00;4996765;28;45856;-74
2023/05/30 02:39:15;;;;;;;;;9.00;7.33;;;;;15.65;51.01;101679.16;4967482;28;45627;-74
2023/05/30 02:41:40;;;;;;;;;6.67;4.33;;;;;15.51;51.06;101656.38;4986980;28;45732;-76
2023/05/30 02:44:06;;;;;;;;;6.33;4.67;;;;;15.57;50.96;101679.03;4993923;28;45379;-74
2023/05/30 02:46:33;;;;;;;;;4.67;4.67;;;;;15.43;50.86;101659.84;4994515;28;45662;-75
2023/05/30 02:48:59;;;;;;;;;5.00;5.00;;;;;15.44;51.32;101676.75;4979323;28;45493;-75
2023/05/30 02:51:24;;;;;;;;;7.67;3.00;;;;;15.09;51.50;101618.63;4979207;28;45199;-75
2023/05/30 02:53:50;;;;;;;;;5.33;4.00;;;;;15.06;51.63;101614.44;4971109;28;45385;-74
2023/05/30 02:56:15;;;;;;;;;7.67;5.33;;;;;15.29;51.69;101676.44;4989266;28;46116;-74
2023/05/30 02:58:41;;;;;;;;;6.00;5.67;;;;;15.46;51.56;101697.03;4979451;28;45402;-74
2023/05/30 03:01:07;;;;;;;;;4.33;4.33;;;;;15.39;51.84;101695.94;4979839;28;45341;-75
2023/05/30 03:03:34;;;;;;;;;4.33;4.00;;;;;15.18;51.83;101665.91;4980804;28;45515;-75
2023/05/30 03:06:01;;;;;;;;;6.67;5.67;;;;;15.33;51.77;101696.56;4979522;28;46901;-75
2023/05/30 03:08:28;;;;;;;;;3.67;1.67;;;;;15.37;51.77;101692.56;4980914;28;45537;-75
2023/05/30 03:10:54;;;;;;;;;6.00;4.33;;;;;15.37;51.79;101692.56;4993678;28;45477;-75
2023/05/30 03:13:20;;;;;;;;;8.33;6.00;;;;;15.28;51.40;101674.75;4965870;28;45318;-75
2023/05/30 03:15:45;;;;;;;;;6.33;5.00;;;;;15.30;51.60;101691.50;4962627;28;47795;-75
2023/05/30 03:18:10;;;;;;;;;6.67;4.00;;;;;15.01;51.48;101638.13;4979170;28;45416;-74
2023/05/30 03:20:36;;;;;;;;;4.33;4.33;;;;;15.30;51.34;101675.44;4981653;28;45242;-76
2023/05/30 03:23:02;;;;;;;;;8.67;5.33;;;;;14.88;51.53;101630.47;4987666;28;45383;-74
2023/05/30 03:25:27;;;;;;;;;6.00;4.67;;;;;15.21;51.80;101697.75;4978999;28;45586;-75
2023/05/30 03:27:53;;;;;;;;;7.00;5.33;;;;;14.84;51.61;101637.13;4954260;28;46003;-74
2023/05/30 03:30:20;;;;;;;;;7.67;5.00;;;;;15.23;51.61;101700.31;4994632;28;45510;-74
2023/05/30 03:32:48;;;;;;;;;5.33;5.00;;;;;15.05;51.77;101670.81;4998692;28;45338;-74
2023/05/30 03:35:14;;;;;;;;;6.67;5.00;;;;;15.09;51.77;101693.63;4997438;28;46467;-75
2023/05/30 03:37:39;;;;;;;;;9.33;6.00;;;;;15.04;51.88;101686.03;4998444;28;45270;-74
2023/05/30 03:40:05;;;;;;;;;4.33;4.00;;;;;15.09;52.05;101704.34;4991449;28;45385;-75
2023/05/30 03:42:31;;;;;;;;;5.33;4.00;;;;;14.89;52.50;101704.44;4999813;28;45155;-75
2023/05/30 03:44:56;;;;;;;;;6.00;3.33;;;;;14.90;52.44;101707.97;4998727;28;46052;-74
2023/05/30 03:47:21;;;;;;;;;6.00;4.67;;;;;14.42;52.27;101625.19;4998081;28;45514;-75
2023/05/30 03:49:47;;;;;;;;;4.33;4.00;;;;;14.68;52.09;101679.75;4986053;28;45369;-75
2023/05/30 03:52:12;;;;;;;;;9.00;5.67;;;;;14.72;52.18;101685.63;4946995;28;45442;-75
2023/05/30 03:54:37;;;;;;;;;4.00;3.33;;;;;14.61;52.49;101687.50;4958480;28;60513;-74
2023/05/30 03:57:03;;;;;;;;;4.67;4.00;;;;;14.67;52.28;101688.78;4959024;28;45436;-74
2023/05/30 03:59:28;;;;;;;;;6.33;5.00;;;;;14.67;52.35;101715.53;4952838;28;45354;-76
2023/05/30 04:01:54;;;;;;;;;5.67;4.33;;;;;14.58;52.79;101706.53;4961778;28;45572;-75
2023/05/30 04:04:19;;;;;;;;;6.67;5.00;;;;;14.43;53.00;101683.06;4978932;28;45694;-75
2023/05/30 04:06:45;;;;;;;;;9.67;6.33;;;;;14.56;52.42;101713.03;4970063;28;45250;-74
2023/05/30 04:09:10;;;;;;;;;5.33;4.00;;;;;14.43;52.72;101683.06;4962154;28;45488;-74
2023/05/30 04:11:36;;;;;;;;;5.67;5.67;;;;;14.68;52.53;101709.19;4975960;28;45439;-74
2023/05/30 04:14:01;;;;;;;;;4.00;3.00;;;;;14.71;52.51;101711.56;4967009;28;45861;-74
2023/05/30 04:16:26;;;;;;;;;7.33;5.00;;;;;14.66;52.16;101713.84;4959103;28;45417;-75
2023/05/30 04:18:52;;;;;;;;;4.33;4.00;;;;;14.59;52.17;101704.69;4978659;28;45621;-75
2023/05/30 04:21:17;;;;;;;;;5.00;5.00;;;;;14.74;52.02;101721.97;4985052;28;45207;-75
2023/05/30 04:23:42;;;;;;;;;2.67;1.33;;;;;14.73;52.09;101722.97;4992223;28;46475;-74
2023/05/30 04:26:10;;;;;;;;;3.33;3.33;;;;;14.73;52.02;101720.28;4977682;28;45228;-75
2023/05/30 04:28:39;;;;;;;;;5.33;5.33;;;;;14.74;51.95;101716.63;4960464;28;45478;-74
2023/05/30 04:31:08;;;;;;;;;4.00;4.00;;;;;14.64;51.82;101715.00;4959422;28;45233;-74
2023/05/30 04:33:35;;;;;;;;;4.33;4.00;;;;;14.57;52.14;101707.53;4957922;28;45922;-75
2023/05/30 04:36:05;;;;;;;;;5.00;4.00;;;;;14.69;51.81;101732.28;4976963;28;45532;-74
2023/05/30 04:38:32;;;;;;;;;4.67;4.00;;;;;14.50;51.54;101713.63;4991666;28;45508;-74
2023/05/30 04:41:00;;;;;;;;;7.67;4.00;;;;;14.31;51.71;101688.56;4975163;28;45592;-75
2023/05/30 04:43:26;;;;;;;;;8.33;4.00;;;;;14.62;51.84;101747.25;4959291;28;47753;-75
2023/05/30 04:45:51;;;;;;;;;3.33;3.00;;;;;14.48;52.17;101711.09;4990492;28;45562;-76
2023/05/30 04:48:17;;;;;;;;;5.33;4.67;;;;;14.42;51.83;101694.75;4962016;28;45425;-74
2023/05/30 04:50:46;;;;;;;;;4.00;4.00;;;;;14.49;51.45;101695.88;4976864;28;45595;-74
2023/05/30 04:53:19;;;;;;;;;6.67;3.67;;;;;14.89;51.95;101752.63;4977320;28;45851;-74
2023/05/30 04:55:44;;;;;;;;;3.00;3.00;;;;;14.94;51.12;101743.31;4961837;28;45530;-75
2023/05/30 04:58:13;;;;;;;;;10.00;8.67;;;;;14.99;51.17;101765.13;4971036;28;45536;-74
2023/05/30 05:00:40;;;;;;;;;4.00;4.00;;;;;14.81;51.08;101741.81;4997983;28;45495;-74
2023/05/30 05:03:06;;;;;;;;;6.00;4.67;;;;;14.84;51.45;101744.22;4986400;28;45632;-75
2023/05/30 05:05:32;;;;;;;;;5.33;5.33;;;;;15.06;51.11;101748.34;4978437;28;45568;-74
2023/05/30 05:07:57;;;;;;;;;5.00;5.00;;;;;14.62;50.94;101669.63;4978477;28;45323;-73
2023/05/30 05:10:22;;;;;;;;;5.00;4.00;;;;;15.14;50.82;101734.19;4996939;28;45404;-76
2023/05/30 05:12:48;;;;;;;;;8.33;7.00;;;;;15.22;50.77;101755.72;4978548;28;46793;-77
2023/05/30 05:15:13;;;;;;;;;4.33;3.00;;;;;15.28;50.26;101762.31;4977057;28;45404;-76
2023/05/30 05:17:39;;;;;;;;;6.00;3.00;;;;;15.10;50.45;101732.81;4980218;28;45424;-75
2023/05/30 05:20:08;;;;;;;;;4.00;4.00;;;;;15.01;50.24;101701.53;4973966;28;45556;-76
2023/05/30 05:22:36;;;;;;;;;4.00;4.00;;;;;15.47;49.86;101772.91;4971423;28;46677;-75
2023/05/30 05:25:02;;;;;;;;;9.33;5.00;;;;;15.37;50.09;101764.94;4974059;28;45960;-75
2023/05/30 05:27:27;;;;;;;;;4.33;4.00;;;;;15.29;49.99;101743.41;4961026;28;45363;-75
2023/05/30 05:29:53;;;;;;;;;6.00;5.33;;;;;15.31;50.02;101741.41;4975652;28;45282;-76
2023/05/30 05:32:18;;;;;;;;;5.33;5.33;;;;;15.28;49.93;101757.81;4965480;28;48705;-75
2023/05/30 05:34:44;;;;;;;;;4.67;4.00;;;;;15.14;49.88;101769.00;4976320;28;45647;-75
2023/05/30 05:37:09;;;;;;;;;5.00;5.00;;;;;15.13;50.33;101765.47;4978601;28;45453;-76
2023/05/30 05:39:35;;;;;;;;;5.67;5.00;;;;;15.21;50.21;101762.06;4975175;28;45382;-76
2023/05/30 05:42:10;;;;;;;;;5.67;4.00;;;;;15.18;50.33;101740.91;4976617;28;46414;-75
2023/05/30 05:44:36;;;;;;;;;6.67;5.67;;;;;15.35;49.95;101766.91;4975369;28;45404;-75
2023/05/30 05:47:02;;;;;;;;;9.00;8.00;;;;;15.26;49.96;101762.47;4977443;28;52536;-74
2023/05/30 05:49:27;;;;;;;;;5.00;3.33;;;;;15.30;49.99;101766.53;4975892;28;45280;-76
2023/05/30 05:51:53;;;;;;;;;8.00;7.33;;;;;15.37;49.96;101772.97;4959527;28;47030;-75
2023/05/30 05:54:18;;;;;;;;;5.67;2.67;;;;;15.28;50.27;101754.28;4960330;28;45267;-76
2023/05/30 05:56:44;;;;;;;;;4.33;4.33;;;;;15.77;49.60;101764.53;4959684;28;54627;-72
2023/05/30 05:59:09;;;;;;;;;7.67;6.67;;;;;16.53;46.95;101790.81;4961419;28;45411;-75
2023/05/30 06:01:34;;;;;;;;;6.00;6.00;;;;;16.99;46.34;101746.63;4975700;28;45405;-73
2023/05/30 06:04:03;;;;;;;;;2.67;1.33;;;;;17.85;45.01;101776.00;4977466;28;45436;-76
2023/05/30 06:06:28;;;;;;;;;4.33;4.33;;;;;18.36;43.21;101765.88;4976425;28;45281;-76
2023/05/30 06:08:54;;;;;;;;;5.00;5.00;;;;;19.05;41.70;101775.19;4955784;28;45319;-77
2023/05/30 06:11:19;;;;;;;;;5.67;5.67;;;;;19.63;39.89;101773.91;4968149;28;46350;-76
2023/05/30 06:13:45;;;;;;;;;6.00;4.67;;;;;19.83;39.49;101747.31;4977216;28;45733;-77
2023/05/30 06:16:10;;;;;;;;;4.67;4.00;;;;;20.39;39.14;101769.41;4981739;28;45513;-83
2023/05/30 06:18:36;;;;;;;;;4.00;4.00;;;;;20.61;37.88;101771.25;4960101;28;45683;-75
2023/05/30 06:21:01;;;;;;;;;6.67;6.33;;;;;20.87;37.21;101776.22;4980182;28;45832;-74
2023/05/30 06:23:27;;;;;;;;;5.00;5.00;;;;;20.96;36.63;101771.53;4987241;28;45491;-75
2023/05/30 06:25:52;;;;;;;;;7.33;4.00;;;;;20.67;36.58;101712.94;4981930;28;45556;-78
2023/05/30 06:28:17;;;;;;;;;7.33;7.33;;;;;21.42;36.01;101761.31;4959947;28;45483;-76
2023/05/30 06:30:43;;;;;;;;;5.33;5.00;;;;;21.55;35.44;101744.41;4967170;28;45680;-74
2023/05/30 06:33:08;;;;;;;;;5.33;3.00;;;;;21.87;34.87;101753.91;4977590;28;45528;-76
2023/05/30 06:35:33;;;;;;;;;5.00;4.00;;;;;22.01;33.78;101765.69;4977063;28;45547;-76
2023/05/30 06:37:59;;;;;;;;;6.33;4.33;;;;;22.14;34.66;101771.25;4962333;28;45715;-76
2023/05/30 06:40:24;;;;;;;;;3.33;1.00;;;;;22.47;33.76;101755.28;4986829;28;46476;-75
2023/05/30 06:42:49;;;;;;;;;5.67;5.33;;;;;22.73;33.03;101765.44;4957358;28;46740;-76
2023/05/30 06:45:15;;;;;;;;;6.00;4.67;;;;;22.94;33.39;101767.25;4961304;28;45522;-74
2023/05/30 06:47:40;;;;;;;;;7.33;4.33;;;;;22.73;32.85;101771.72;4979515;28;45465;-74
2023/05/30 06:50:09;;;;;;;;;5.33;5.33;;;;;22.38;33.56;101764.56;4960826;28;47369;-75
2023/05/30 06:52:34;;;;;;;;;6.00;6.00;;;;;22.57;33.31;101772.00;4957476;28;45469;-73
2023/05/30 06:55:00;;;;;;;;;5.00;5.00;;;;;22.79;33.02;101783.63;4964474;28;45544;-75
2023/05/30 06:57:25;;;;;;;;;4.33;4.33;;;;;23.22;32.82;101764.47;4976461;28;45438;-77
2023/05/30 06:59:51;;;;;;;;;7.00;5.00;;;;;23.78;30.99;101769.69;4944759;28;46451;-77
2023/05/30 07:02:16;;;;;;;;;7.00;6.67;;;;;24.07;31.06;101736.72;4977237;28;45609;-79
2023/05/30 07:04:42;;;;;;;;;3.67;3.67;;;;;24.36;30.23;101772.69;4978240;28;45283;-77
2023/05/30 07:07:08;;;;;;;;;5.00;4.00;;;;;24.11;30.48;101769.72;4980852;28;45579;-73
2023/05/30 07:09:33;;;;;;;;;2.67;1.00;;;;;24.21;30.75;101759.25;4982618;28;45974;-77
2023/05/30 07:11:59;;;;;;;;;6.33;4.67;;;;;24.65;30.44;101776.84;4979239;28;45528;-81
2023/05/30 07:14:24;;;;;;;;;6.67;4.33;;;;;24.90;29.86;101744.34;4963700;28;45514;-77
2023/05/30 07:16:50;;;;;;;;;6.33;5.00;;;;;25.05;29.54;101718.59;4977122;28;45591;-76
2023/05/30 07:19:15;;;;;;;;;7.00;6.00;;;;;24.47;28.61;101585.31;4972903;28;48168;-75
2023/05/30 07:21:41;;;;;;;;;5.00;5.00;;;;;25.62;28.52;101765.78;4949863;28;45485;-74
2023/05/30 07:24:06;;;;;;;;;7.00;4.67;;;;;25.69;28.25;101773.97;4978015;28;45285;-79
2023/05/30 07:26:31;;;;;;;;;5.33;4.33;;;;;25.49;28.77;101752.28;4981289;28;45408;-79
2023/05/30 07:28:57;;;;;;;;;4.67;3.00;;;;;25.70;28.53;101768.31;4959539;28;48064;-79
2023/05/30 07:31:23;;;;;;;;;10.33;10.00;;;;;26.13;28.50;101775.75;4977918;28;45508;-78
2023/05/30 07:33:48;;;;;;;;;5.00;5.00;;;;;26.12;27.96;101757.72;4978606;28;45441;-82
2023/05/30 07:36:14;;;;;;;;;6.33;5.33;;;;;26.28;27.60;101779.00;4979120;28;45452;-76
2023/05/30 07:38:40;;;;;;;;;6.67;6.00;;;;;26.61;27.30;101777.88;4977549;28;45617;-74
2023/05/30 07:41:06;;;;;;;;;7.00;4.00;;;;;26.62;27.02;101730.44;4980748;28;45523;-76
2023/05/30 07:43:31;;;;;;;;;5.67;4.33;;;;;27.08;27.27;101770.06;4944628;28;45410;-78
2023/05/30 07:45:56;;;;;;;;;7.33;4.00;;;;;27.35;26.38;101767.81;4958966;28;45415;-76
2023/05/30 07:48:22;;;;;;;;;6.00;4.33;;;;;27.11;26.75;101775.88;4977737;28;46515;-77
2023/05/30 07:50:47;;;;;;;;;5.33;4.33;;;;;27.13;26.46;101775.66;4960877;28;45878;-75
2023/05/30 07:53:12;;;;;;;;;5.67;5.67;;;;;26.97;26.78;101786.09;4955794;28;45498;-74
2023/05/30 07:55:38;;;;;;;;;5.67;3.67;;;;;26.81;27.26;101778.50;4980126;28;45371;-74
2023/05/30 07:58:03;;;;;;;;;7.33;4.33;;;;;26.68;26.99;101781.38;4973574;28;46080;-75
2023/05/30 08:00:28;;;;;;;;;6.67;6.33;;;;;26.62;26.90;101730.44;4972526;28;45362;-76
2023/05/30 08:02:54;;;;;;;;;5.00;5.00;;;;;26.82;27.25;101779.31;4961928;28;45354;-72
2023/05/30 08:05:19;;;;;;;;;6.00;4.33;;;;;26.83;26.64;101738.19;4956196;28;45329;-77
2023/05/30 08:07:45;;;;;;;;;2.67;2.67;;;;;26.67;26.79;101730.59;4958495;28;48159;-78
2023/05/30 08:10:10;;;;;;;;;7.33;5.67;;;;;27.08;26.63;101783.69;4977691;28;45607;-77
2023/05/30 08:12:36;;;;;;;;;7.67;5.00;;;;;27.21;26.52;101791.72;4987523;28;45446;-79
2023/05/30 08:15:01;;;;;;;;;7.00;5.33;;;;;27.56;26.63;101778.22;4959885;28;45658;-76
2023/05/30 08:17:29;;;;;;;;;6.00;4.67;;;;;27.92;26.45;101788.25;4969447;28;47571;-78
2023/05/30 08:19:55;;;;;;;;;9.00;6.33;;;;;28.11;26.00;101758.94;4974589;28;45477;-75
2023/05/30 08:22:23;;;;;;;;;4.33;4.00;;;;;28.57;25.24;101787.41;4972511;28;45541;-78
2023/05/30 08:24:55;;;;;;;;;7.33;6.00;;;;;28.39;25.58;101782.88;4956469;28;45597;-78
2023/05/30 08:27:21;;;;;;;;;6.00;6.00;;;;;28.28;25.58;101789.19;4974831;28;46846;-75
2023/05/30 08:29:49;;;;;;;;;6.67;5.33;;;;;28.38;25.54;101789.41;4973983;28;45626;-75
2023/05/30 08:32:15;;;;;;;;;5.33;4.33;;;;;28.39;25.26;101771.94;4971698;28;45558;-81
2023/05/30 08:34:40;;;;;;;;;4.67;4.67;;;;;28.09;25.34;101778.31;4967738;28;45661;-73
2023/05/30 08:37:06;;;;;;;;;6.67;6.00;;;;;28.18;25.67;101771.41;4976759;28;47821;-74
2023/05/30 08:39:33;;;;;;;;;5.67;5.67;;;;;28.15;25.42;101743.72;4977447;28;45539;-70
2023/05/30 08:41:58;;;;;;;;;2.33;2.33;;;;;27.37;26.25;101717.34;4982767;28;45484;-79
2023/05/30 08:44:24;;;;;;;;;5.00;4.00;;;;;27.38;26.75;101800.13;4971473;28;45632;-71
2023/05/30 08:46:50;;;;;;;;;4.00;4.00;;;;;27.72;26.86;101774.03;4966073;28;46615;-71
2023/05/30 08:49:20;;;;;;;;;10.33;7.00;;;;;28.18;25.64;101789.72;4957250;28;45334;-73
2023/05/30 08:51:46;;;;;;;;;8.00;5.33;;;;;28.35;25.87;101776.22;4968632;28;45439;-71
2023/05/30 08:54:22;;;;;;;;;5.33;4.33;;;;;28.51;25.07;101767.31;4988633;28;45309;-71
2023/05/30 08:57:14;;;;;;;;;5.67;5.67;;;;;29.13;24.67;101758.53;4958439;28;45446;-72
2023/05/30 08:59:40;;;;;;;;;7.33;1.33;;;;;29.17;24.58;101730.41;4979938;28;45309;-71
2023/05/30 09:02:07;;;;;;;;;4.67;4.67;;;;;29.06;24.54;101682.03;4978085;28;45511;-72
2023/05/30 09:04:34;;;;;;;;;8.00;6.00;;;;;29.85;23.98;101756.94;4977020;28;45258;-72
2023/05/30 09:07:01;;;;;;;;;6.33;5.33;;;;;29.96;23.71;101708.56;4975058;28;48187;-70
2023/05/30 09:09:29;;;;;;;;;8.00;6.33;;;;;30.47;22.97;101765.09;4976624;28;45424;-72
2023/05/30 09:11:54;;;;;;;;;5.33;5.33;;;;;30.90;23.29;101773.69;4976798;28;45262;-71
2023/05/30 09:14:20;;;;;;;;;6.67;5.67;;;;;30.78;22.67;101771.03;4979106;28;45412;-71
2023/05/30 09:16:46;;;;;;;;;6.00;5.00;;;;;30.59;22.96;101754.00;4976703;28;45814;-72
2023/05/30 09:19:14;;;;;;;;;6.00;3.67;;;;;30.86;22.65;101765.13;4974702;28;45471;-70
2023/05/30 09:21:42;;;;;;;;;4.67;4.67;;;;;31.33;22.55;101756.38;4975403;28;45401;-70
2023/05/30 09:24:08;;;;;;;;;6.00;4.00;;;;;31.94;21.92;101760.59;4977786;28;45516;-73
2023/05/30 09:26:33;;;;;;;;;6.33;5.67;;;;;32.37;21.79;101753.22;4990109;28;45407;-73
2023/05/30 09:29:09;;;;;;;;;5.00;5.00;;;;;32.61;21.01;101742.63;4975834;28;45624;-74
2023/05/30 09:31:35;;;;;;;;;5.00;4.67;;;;;32.70;20.86;101752.06;4967428;28;45789;-73
2023/05/30 09:34:01;;;;;;;;;7.33;6.00;;;;;32.67;21.30;101755.34;4958696;28;45410;-74
2023/05/30 09:36:28;;;;;;;;;7.33;6.00;;;;;33.04;20.68;101743.41;4958940;28;46322;-72
2023/05/30 09:38:58;;;;;;;;;7.00;3.33;;;;;33.42;19.82;101747.69;4976812;28;45307;-73
2023/05/30 09:41:25;;;;;;;;;6.33;5.33;;;;;33.78;19.75;101748.56;4977082;28;45338;-73
2023/05/30 09:43:54;;;;;;;;;4.33;4.33;;;;;33.89;19.31;101754.94;4977835;28;45350;-73
2023/05/30 09:46:24;;;;;;;;;4.33;4.33;;;;;33.39;20.06;101738.03;4958924;28;47678;-73
2023/05/30 09:48:50;;;;;;;;;4.00;4.00;;;;;33.05;20.02;101734.06;4976290;28;45455;-72
2023/05/30 09:51:17;;;;;;;;;5.00;5.00;;;;;33.14;20.49;101748.97;4978861;28;45540;-73
2023/05/30 09:53:59;;;;;;;;;4.67;4.67;;;;;32.89;20.60;101730.41;4963194;28;45596;-73
2023/05/30 09:56:39;;;;;;;;;7.33;5.00;;;;;32.69;20.75;101709.09;4962161;28;46899;-73
2023/05/30 09:59:09;;;;;;;;;6.67;5.33;;;;;32.42;21.11;101746.91;4979868;28;45402;-73
2023/05/30 10:01:38;;;;;;;;;6.33;5.00;;;;;31.80;22.26;101748.34;4962262;28;45608;-73
2023/05/30 10:04:21;;;;;;;;;6.00;4.67;;;;;30.75;22.85;101752.34;4962199;28;45484;-74
2023/05/30 10:06:54;;;;;;;;;5.33;5.00;;;;;30.08;23.82;101744.19;4980061;28;46749;-73
2023/05/30 10:09:23;;;;;;;;;5.67;3.67;;;;;29.26;24.42;101715.28;4979881;28;45506;-73
2023/05/30 10:11:50;;;;;;;;;5.33;5.33;;;;;28.50;26.08;101751.97;4979853;28;45422;-73
2023/05/30 10:14:16;;;;;;;;;4.33;4.33;;;;;28.01;26.88;101753.19;4980023;28;45234;-73
2023/05/30 10:16:47;;;;;;;;;6.00;3.67;;;;;27.48;27.60;101734.88;4962025;28;48269;-74
2023/05/30 10:19:15;;;;;;;;;6.67;6.00;;;;;26.91;28.02;101748.78;4961441;28;45411;-74
2023/05/30 10:21:43;;;;;;;;;6.00;4.33;;;;;26.60;28.86;101746.19;4979875;28;45402;-73
2023/05/30 10:24:12;;;;;;;;;4.00;4.00;;;;;26.47;28.98;101757.25;4979840;28;45234;-74
2023/05/30 10:26:42;;;;;;;;;4.00;4.00;;;;;26.18;29.38;101743.22;4961778;28;47545;-73
2023/05/30 10:29:13;;;;;;;;;8.67;6.00;;;;;25.86;29.77;101742.44;4962066;28;45497;-73
2023/05/30 10:31:39;;;;;;;;;4.33;3.67;;;;;25.52;30.07;101757.28;4961731;28;45540;-73
2023/05/30 10:34:10;;;;;;;;;5.00;5.00;;;;;25.05;31.13;101751.25;4962000;28;45309;-72
2023/05/30 10:36:35;;;;;;;;;6.00;3.67;;;;;24.66;31.64;101756.75;4979452;28;46516;-74
2023/05/30 10:39:15;;;;;;;;;4.67;4.00;;;;;24.36;32.23;101754.50;4978994;28;45403;-73
2023/05/30 10:41:56;;;;;;;;;6.00;6.00;;;;;23.85;33.01;101716.22;4979366;28;45265;-72
2023/05/30 10:45:20;;;;;;;;;4.67;4.67;;;;;23.96;33.26;101746.31;4979310;28;45360;-73
2023/05/30 10:48:07;;;;;;;;;4.33;4.33;;;;;24.01;33.47;101736.69;4918315;28;47615;-72
2023/05/30 10:50:39;;;;;;;;;10.33;6.33;;;;;23.39;33.50;101695.22;4918618;28;45440;-73
2023/05/30 10:53:20;;;;;;;;;8.00;6.00;;;;;23.43;34.27;101706.53;4958566;28;45332;-72
2023/05/30 10:55:47;;;;;;;;;4.67;4.67;;;;;23.45;34.20;101734.31;4961635;28;45471;-73
2023/05/30 10:58:41;;;;;;;;;25.33;18.67;;;;;23.40;34.51;101743.03;4961258;28;48647;-72
2023/05/30 11:01:27;;;;;;;;;14.00;12.67;;;;;23.38;34.46;101729.66;4978882;28;45359;-72
2023/05/30 11:04:06;;;;;;;;;13.67;7.67;;;;;23.33;34.65;101715.88;4977971;28;45351;-73
2023/05/30 11:06:34;;;;;;;;;15.67;14.67;;;;;23.43;34.50;101717.38;4979194;28;45397;-74
2023/05/30 11:09:11;;;;;;;;;10.33;9.33;;;;;22.88;34.68;101671.28;4978594;28;46826;-74
2023/05/30 11:11:43;;;;;;;;;12.67;11.33;;;;;22.98;35.52;101696.16;4979063;28;45278;-72
2023/05/30 11:14:13;;;;;;;;;8.67;7.33;;;;;22.67;35.07;101658.66;4979743;28;45428;-72
2023/05/30 11:17:02;;;;;;;;;9.67;7.00;;;;;22.96;35.63;101710.94;4980340;28;45515;-73
2023/05/30 11:19:36;;;;;;;;;5.00;4.33;;;;;22.59;35.49;101661.53;4979086;28;45889;-73
2023/05/30 11:22:03;;;;;;;;;4.67;3.00;;;;;22.78;35.37;101698.72;4978659;28;45537;-73
2023/05/30 11:24:30;;;;;;;;;4.33;4.33;;;;;22.95;35.40;101706.56;4977384;28;45441;-71
2023/05/30 11:27:15;;;;;;;;;7.00;5.00;;;;;23.00;34.71;101717.63;4976745;28;45361;-72